Overview Statistics Trail Chart Weather Telemetry Raw packets
 

This is the latest recevied weather packets stored in our database for station/object K6CEG. If no packets are shown the sender has not sent any weather packets the latest 10 day(s).

<< 106 107 108 109 110 111 112 >>
Time Temp. Humidity Pressure Rain* Wind** Luminosity Snow
1787872440 36.67° C 36% 1011.5 hPa 0 mm - 192 W/m² -
1787872140 36.67° C 37% 1011.7 hPa 0 mm - 169 W/m² -
1787871839 36.11° C 40% 1011.7 hPa 0 mm - 176 W/m² -
1787871534 35.56° C 42% 1011.7 hPa 0 mm - 165 W/m² -
1787871230 35° C 45% 1011.8 hPa 0 mm - 165 W/m² -
1787870925 34.44° C 48% 1012 hPa 0 mm - 186 W/m² -
1787870625 34.44° C 50% 1011.8 hPa 0 mm - 153 W/m² -
1787870320 34.44° C 50% 1011.7 hPa 0 mm - 113 W/m² -
1787870015 35° C 47% 1011.8 hPa 0 mm - 81 W/m² -
1787869714 36.11° C 44% 1012.5 hPa 0 mm - 49 W/m² -
1787869414 36.67° C 37% 1012.7 hPa 0 mm - 42 W/m² -
1787869109 36.67° C 36% 1012.5 hPa 0 mm - 78 W/m² -
1787868807 36.67° C 37% 1012.7 hPa 0 mm - 137 W/m² -
1787868506 36.67° C 36% 1012.7 hPa 0 mm - 162 W/m² -
1787868205 36.67° C 38% 1012.7 hPa 0 mm - 204 W/m² -
1787867908 36.67° C 40% 1013 hPa 0 mm - 210 W/m² -
1787867596 36.11° C 41% 1012.9 hPa 0 mm - 318 W/m² -
1787867296 35.56° C 43% 1013.1 hPa 0 mm - 249 W/m² -
1787866993 35° C 43% 1013.3 hPa 0 mm - 291 W/m² -
1787866688 33.89° C 46% 1013.4 hPa 0 mm - 702 W/m² -
1787866386 34.44° C 48% 1013.3 hPa 0 mm - 550 W/m² -
1787866081 34.44° C 46% 1013.9 hPa 0 mm - 274 W/m² -
1787865775 35° C 45% 1013.9 hPa 0 mm - 177 W/m² -
1787865471 35° C 44% 1013.9 hPa 0 mm - 220 W/m² -
1787865165 34.44° C 44% 1013.6 hPa 0 mm - 201 W/m² -

* Rain latest hour (hover to see other rain measurements)
** Current wind speed in m/s (hover to see current wind gust speed)